sensor_id;sensor_type;location;lat;lon;timestamp;temperature;humidity
16635;DHT22;8431;52.458;9.998;2022-12-18T00:01:24;-6.70;99.90
16635;DHT22;8431;52.458;9.998;2022-12-18T00:03:57;-6.70;99.90
16635;DHT22;8431;52.458;9.998;2022-12-18T00:06:26;-6.70;99.90
16635;DHT22;8431;52.458;9.998;2022-12-18T00:08:56;-6.70;99.90
16635;DHT22;8431;52.458;9.998;2022-12-18T00:11:25;-6.70;99.90
16635;DHT22;8431;52.458;9.998;2022-12-18T00:13:54;-6.70;99.90
16635;DHT22;8431;52.458;9.998;2022-12-18T00:16:22;-6.70;99.90
16635;DHT22;8431;52.458;9.998;2022-12-18T00:18:51;-6.80;99.90
16635;DHT22;8431;52.458;9.998;2022-12-18T00:21:19;-6.70;99.90
16635;DHT22;8431;52.458;9.998;2022-12-18T00:23:48;-6.80;99.90
16635;DHT22;8431;52.458;9.998;2022-12-18T00:26:19;-6.90;99.90
16635;DHT22;8431;52.458;9.998;2022-12-18T00:28:47;-6.90;99.90
16635;DHT22;8431;52.458;9.998;2022-12-18T00:31:16;-6.90;99.90
16635;DHT22;8431;52.458;9.998;2022-12-18T00:33:44;-7.00;99.90
16635;DHT22;8431;52.458;9.998;2022-12-18T00:36:17;-7.00;99.90
16635;DHT22;8431;52.458;9.998;2022-12-18T00:38:53;-7.10;99.90
16635;DHT22;8431;52.458;9.998;2022-12-18T00:41:22;-7.10;99.90
16635;DHT22;8431;52.458;9.998;2022-12-18T00:44:11;-7.10;99.90
16635;DHT22;8431;52.458;9.998;2022-12-18T00:46:39;-7.10;99.90
16635;DHT22;8431;52.458;9.998;2022-12-18T00:49:06;-6.90;99.90
16635;DHT22;8431;52.458;9.998;2022-12-18T00:51:33;-6.80;99.90
16635;DHT22;8431;52.458;9.998;2022-12-18T00:54:00;-6.80;99.90
16635;DHT22;8431;52.458;9.998;2022-12-18T00:56:28;-6.80;99.90
16635;DHT22;8431;52.458;9.998;2022-12-18T00:58:55;-6.80;99.90
16635;DHT22;8431;52.458;9.998;2022-12-18T01:01:22;-6.90;99.90
16635;DHT22;8431;52.458;9.998;2022-12-18T01:03:49;-6.90;99.90
16635;DHT22;8431;52.458;9.998;2022-12-18T01:06:17;-6.90;99.90
16635;DHT22;8431;52.458;9.998;2022-12-18T01:08:44;-6.80;99.90
16635;DHT22;8431;52.458;9.998;2022-12-18T01:11:16;-6.90;99.90
16635;DHT22;8431;52.458;9.998;2022-12-18T01:13:47;-6.90;99.90
16635;DHT22;8431;52.458;9.998;2022-12-18T01:16:15;-6.80;99.90
16635;DHT22;8431;52.458;9.998;2022-12-18T01:18:43;-6.90;99.90
16635;DHT22;8431;52.458;9.998;2022-12-18T01:21:12;-6.80;99.90
16635;DHT22;8431;52.458;9.998;2022-12-18T01:23:39;-6.80;99.90
16635;DHT22;8431;52.458;9.998;2022-12-18T01:26:14;-6.80;99.90
16635;DHT22;8431;52.458;9.998;2022-12-18T01:28:42;-6.90;99.90
16635;DHT22;8431;52.458;9.998;2022-12-18T01:31:13;-6.90;99.90
16635;DHT22;8431;52.458;9.998;2022-12-18T01:33:40;-7.00;99.90
16635;DHT22;8431;52.458;9.998;2022-12-18T01:36:08;-7.00;99.90
16635;DHT22;8431;52.458;9.998;2022-12-18T01:38:40;-7.00;99.90
16635;DHT22;8431;52.458;9.998;2022-12-18T01:41:08;-7.00;99.90
16635;DHT22;8431;52.458;9.998;2022-12-18T01:43:44;-7.00;99.90
16635;DHT22;8431;52.458;9.998;2022-12-18T01:46:12;-6.90;99.90
16635;DHT22;8431;52.458;9.998;2022-12-18T01:48:40;-6.90;99.90
16635;DHT22;8431;52.458;9.998;2022-12-18T01:51:10;-6.80;99.90
16635;DHT22;8431;52.458;9.998;2022-12-18T01:53:39;-6.80;99.90
16635;DHT22;8431;52.458;9.998;2022-12-18T01:56:07;-6.80;99.90
16635;DHT22;8431;52.458;9.998;2022-12-18T01:58:39;-6.80;99.90
16635;DHT22;8431;52.458;9.998;2022-12-18T02:01:08;-6.70;99.90
16635;DHT22;8431;52.458;9.998;2022-12-18T02:03:37;-6.70;99.90
16635;DHT22;8431;52.458;9.998;2022-12-18T02:06:09;-6.80;99.90
16635;DHT22;8431;52.458;9.998;2022-12-18T02:08:48;-6.80;99.90
16635;DHT22;8431;52.458;9.998;2022-12-18T02:11:24;-6.80;99.90
16635;DHT22;8431;52.458;9.998;2022-12-18T02:14:06;-6.90;99.90
16635;DHT22;8431;52.458;9.998;2022-12-18T02:16:40;-7.00;99.90
16635;DHT22;8431;52.458;9.998;2022-12-18T02:19:18;-7.00;99.90
16635;DHT22;8431;52.458;9.998;2022-12-18T02:21:56;-7.10;99.90
16635;DHT22;8431;52.458;9.998;2022-12-18T02:24:31;-7.10;99.90
16635;DHT22;8431;52.458;9.998;2022-12-18T02:27:05;-7.10;99.90
16635;DHT22;8431;52.458;9.998;2022-12-18T02:29:36;-7.10;99.90
16635;DHT22;8431;52.458;9.998;2022-12-18T02:32:08;-7.20;99.90
16635;DHT22;8431;52.458;9.998;2022-12-18T02:34:38;-7.10;99.90
16635;DHT22;8431;52.458;9.998;2022-12-18T02:37:16;-7.10;99.90
16635;DHT22;8431;52.458;9.998;2022-12-18T02:39:46;-7.10;99.90
16635;DHT22;8431;52.458;9.998;2022-12-18T02:42:16;-7.10;99.90
16635;DHT22;8431;52.458;9.998;2022-12-18T02:44:45;-7.10;99.90
16635;DHT22;8431;52.458;9.998;2022-12-18T02:47:15;-7.10;99.90
16635;DHT22;8431;52.458;9.998;2022-12-18T02:49:51;-7.30;99.90
16635;DHT22;8431;52.458;9.998;2022-12-18T02:52:25;-7.30;99.90
16635;DHT22;8431;52.458;9.998;2022-12-18T02:55:00;-7.40;99.90
16635;DHT22;8431;52.458;9.998;2022-12-18T02:57:39;-7.30;99.90
16635;DHT22;8431;52.458;9.998;2022-12-18T03:00:10;-7.20;99.90
16635;DHT22;8431;52.458;9.998;2022-12-18T03:02:43;-7.20;99.90
16635;DHT22;8431;52.458;9.998;2022-12-18T03:05:15;-7.10;99.90
16635;DHT22;8431;52.458;9.998;2022-12-18T03:07:47;-7.00;99.90
16635;DHT22;8431;52.458;9.998;2022-12-18T03:10:19;-7.10;99.90
16635;DHT22;8431;52.458;9.998;2022-12-18T03:12:52;-7.20;99.90
16635;DHT22;8431;52.458;9.998;2022-12-18T03:15:24;-7.20;99.90
16635;DHT22;8431;52.458;9.998;2022-12-18T03:17:56;-7.20;99.90
16635;DHT22;8431;52.458;9.998;2022-12-18T03:20:26;-7.10;99.90
16635;DHT22;8431;52.458;9.998;2022-12-18T03:22:59;-7.10;99.90
16635;DHT22;8431;52.458;9.998;2022-12-18T03:25:28;-7.10;99.90
16635;DHT22;8431;52.458;9.998;2022-12-18T03:28:01;-7.30;99.90
16635;DHT22;8431;52.458;9.998;2022-12-18T03:30:31;-7.40;99.90
16635;DHT22;8431;52.458;9.998;2022-12-18T03:33:05;-7.30;99.90
16635;DHT22;8431;52.458;9.998;2022-12-18T03:35:37;-7.30;99.90
16635;DHT22;8431;52.458;9.998;2022-12-18T03:38:05;-7.20;99.90
16635;DHT22;8431;52.458;9.998;2022-12-18T03:40:38;-7.20;99.90
16635;DHT22;8431;52.458;9.998;2022-12-18T03:43:14;-7.30;99.90
16635;DHT22;8431;52.458;9.998;2022-12-18T03:45:50;-7.40;99.90
16635;DHT22;8431;52.458;9.998;2022-12-18T03:48:25;-7.40;99.90
16635;DHT22;8431;52.458;9.998;2022-12-18T03:50:57;-7.50;99.90
16635;DHT22;8431;52.458;9.998;2022-12-18T03:53:32;-7.40;99.90
16635;DHT22;8431;52.458;9.998;2022-12-18T03:56:02;-7.40;99.90
16635;DHT22;8431;52.458;9.998;2022-12-18T03:58:33;-7.30;99.90
16635;DHT22;8431;52.458;9.998;2022-12-18T04:01:05;-7.30;99.90
16635;DHT22;8431;52.458;9.998;2022-12-18T04:03:34;-7.30;99.90
16635;DHT22;8431;52.458;9.998;2022-12-18T04:06:03;-7.20;99.90
16635;DHT22;8431;52.458;9.998;2022-12-18T04:08:32;-7.10;99.90
16635;DHT22;8431;52.458;9.998;2022-12-18T04:11:00;-7.10;99.90
16635;DHT22;8431;52.458;9.998;2022-12-18T04:13:29;-7.10;99.90
16635;DHT22;8431;52.458;9.998;2022-12-18T04:15:58;-7.20;99.90
16635;DHT22;8431;52.458;9.998;2022-12-18T04:18:25;-7.20;99.90
16635;DHT22;8431;52.458;9.998;2022-12-18T04:20:52;-7.20;99.90
16635;DHT22;8431;52.458;9.998;2022-12-18T04:23:19;-7.20;99.90
16635;DHT22;8431;52.458;9.998;2022-12-18T04:25:47;-7.20;99.90
16635;DHT22;8431;52.458;9.998;2022-12-18T04:28:14;-7.20;99.90
16635;DHT22;8431;52.458;9.998;2022-12-18T04:30:41;-7.30;99.90
16635;DHT22;8431;52.458;9.998;2022-12-18T04:33:10;-7.40;99.90
16635;DHT22;8431;52.458;9.998;2022-12-18T04:35:39;-7.50;99.90
16635;DHT22;8431;52.458;9.998;2022-12-18T04:38:06;-7.70;99.90
16635;DHT22;8431;52.458;9.998;2022-12-18T04:40:35;-7.70;99.90
16635;DHT22;8431;52.458;9.998;2022-12-18T04:43:02;-7.80;99.90
16635;DHT22;8431;52.458;9.998;2022-12-18T04:45:30;-7.80;99.90
16635;DHT22;8431;52.458;9.998;2022-12-18T04:47:57;-7.80;99.90
16635;DHT22;8431;52.458;9.998;2022-12-18T04:50:26;-7.90;99.90
16635;DHT22;8431;52.458;9.998;2022-12-18T04:52:53;-7.80;99.90
16635;DHT22;8431;52.458;9.998;2022-12-18T04:55:20;-8.00;99.90
16635;DHT22;8431;52.458;9.998;2022-12-18T04:57:47;-8.00;99.90
16635;DHT22;8431;52.458;9.998;2022-12-18T05:00:14;-8.00;99.90
16635;DHT22;8431;52.458;9.998;2022-12-18T05:02:42;-8.00;99.90
16635;DHT22;8431;52.458;9.998;2022-12-18T05:05:09;-7.90;99.90
16635;DHT22;8431;52.458;9.998;2022-12-18T05:07:37;-7.90;99.90
16635;DHT22;8431;52.458;9.998;2022-12-18T05:10:05;-7.90;99.90
16635;DHT22;8431;52.458;9.998;2022-12-18T05:12:34;-8.00;99.90
16635;DHT22;8431;52.458;9.998;2022-12-18T05:15:21;-8.10;99.90
16635;DHT22;8431;52.458;9.998;2022-12-18T05:17:48;-8.00;99.90
16635;DHT22;8431;52.458;9.998;2022-12-18T05:20:15;-8.10;99.90
16635;DHT22;8431;52.458;9.998;2022-12-18T05:22:45;-8.10;99.90
16635;DHT22;8431;52.458;9.998;2022-12-18T05:25:12;-8.10;99.90
16635;DHT22;8431;52.458;9.998;2022-12-18T05:27:39;-8.10;99.90
16635;DHT22;8431;52.458;9.998;2022-12-18T05:30:07;-8.40;99.90
16635;DHT22;8431;52.458;9.998;2022-12-18T05:32:34;-8.50;99.90
16635;DHT22;8431;52.458;9.998;2022-12-18T05:35:01;-8.60;99.90
16635;DHT22;8431;52.458;9.998;2022-12-18T05:37:28;-8.80;99.90
16635;DHT22;8431;52.458;9.998;2022-12-18T05:39:57;-8.80;99.90
16635;DHT22;8431;52.458;9.998;2022-12-18T05:42:24;-8.80;99.90
16635;DHT22;8431;52.458;9.998;2022-12-18T05:44:51;-8.70;99.90
16635;DHT22;8431;52.458;9.998;2022-12-18T05:47:18;-8.70;99.90
16635;DHT22;8431;52.458;9.998;2022-12-18T05:49:45;-8.70;99.90
16635;DHT22;8431;52.458;9.998;2022-12-18T05:52:12;-8.80;99.90
16635;DHT22;8431;52.458;9.998;2022-12-18T05:54:39;-8.70;99.90
16635;DHT22;8431;52.458;9.998;2022-12-18T05:57:07;-8.80;99.90
16635;DHT22;8431;52.458;9.998;2022-12-18T05:59:34;-8.70;99.90
16635;DHT22;8431;52.458;9.998;2022-12-18T06:02:01;-8.60;99.90
16635;DHT22;8431;52.458;9.998;2022-12-18T06:04:31;-8.60;99.90
16635;DHT22;8431;52.458;9.998;2022-12-18T06:06:58;-8.70;99.90
16635;DHT22;8431;52.458;9.998;2022-12-18T06:09:25;-8.70;99.90
16635;DHT22;8431;52.458;9.998;2022-12-18T06:11:52;-8.90;99.90
16635;DHT22;8431;52.458;9.998;2022-12-18T06:14:21;-8.90;99.90
16635;DHT22;8431;52.458;9.998;2022-12-18T06:16:50;-9.00;99.90
16635;DHT22;8431;52.458;9.998;2022-12-18T06:19:17;-9.00;99.90
16635;DHT22;8431;52.458;9.998;2022-12-18T06:21:44;-9.00;99.90
16635;DHT22;8431;52.458;9.998;2022-12-18T06:24:11;-9.00;99.90
16635;DHT22;8431;52.458;9.998;2022-12-18T06:26:38;-9.00;99.90
16635;DHT22;8431;52.458;9.998;2022-12-18T06:29:06;-9.10;99.90
16635;DHT22;8431;52.458;9.998;2022-12-18T06:31:34;-9.00;99.90
16635;DHT22;8431;52.458;9.998;2022-12-18T06:34:02;-9.00;99.90
16635;DHT22;8431;52.458;9.998;2022-12-18T06:36:30;-9.00;99.90
16635;DHT22;8431;52.458;9.998;2022-12-18T06:38:57;-9.00;99.90
16635;DHT22;8431;52.458;9.998;2022-12-18T06:41:24;-9.00;99.90
16635;DHT22;8431;52.458;9.998;2022-12-18T06:43:51;-9.10;99.90
16635;DHT22;8431;52.458;9.998;2022-12-18T06:46:18;-9.10;99.90
16635;DHT22;8431;52.458;9.998;2022-12-18T06:48:48;-9.10;99.90
16635;DHT22;8431;52.458;9.998;2022-12-18T06:51:17;-9.30;99.90
16635;DHT22;8431;52.458;9.998;2022-12-18T06:53:45;-9.40;99.90
16635;DHT22;8431;52.458;9.998;2022-12-18T06:56:12;-9.40;99.90
16635;DHT22;8431;52.458;9.998;2022-12-18T06:58:39;-9.40;99.90
16635;DHT22;8431;52.458;9.998;2022-12-18T07:01:08;-9.50;99.90
16635;DHT22;8431;52.458;9.998;2022-12-18T07:03:35;-9.40;99.90
16635;DHT22;8431;52.458;9.998;2022-12-18T07:06:04;-9.40;99.90
16635;DHT22;8431;52.458;9.998;2022-12-18T07:08:32;-9.30;99.90
16635;DHT22;8431;52.458;9.998;2022-12-18T07:10:59;-9.30;99.90
16635;DHT22;8431;52.458;9.998;2022-12-18T07:13:26;-9.30;99.90
16635;DHT22;8431;52.458;9.998;2022-12-18T07:15:53;-9.40;99.90
16635;DHT22;8431;52.458;9.998;2022-12-18T07:18:20;-9.30;99.90
16635;DHT22;8431;52.458;9.998;2022-12-18T07:20:47;-9.30;99.90
16635;DHT22;8431;52.458;9.998;2022-12-18T07:23:15;-9.30;99.90
16635;DHT22;8431;52.458;9.998;2022-12-18T07:25:42;-9.30;99.90
16635;DHT22;8431;52.458;9.998;2022-12-18T07:28:09;-9.30;99.90
16635;DHT22;8431;52.458;9.998;2022-12-18T07:30:38;-9.30;99.90
16635;DHT22;8431;52.458;9.998;2022-12-18T07:33:05;-9.30;99.90
16635;DHT22;8431;52.458;9.998;2022-12-18T07:35:32;-9.30;99.90
16635;DHT22;8431;52.458;9.998;2022-12-18T07:37:59;-9.30;99.90
16635;DHT22;8431;52.458;9.998;2022-12-18T07:40:28;-9.40;99.90
16635;DHT22;8431;52.458;9.998;2022-12-18T07:42:55;-9.40;99.90
16635;DHT22;8431;52.458;9.998;2022-12-18T07:45:22;-9.40;99.90
16635;DHT22;8431;52.458;9.998;2022-12-18T07:47:49;-9.40;99.90
16635;DHT22;8431;52.458;9.998;2022-12-18T07:50:16;-9.30;99.90
16635;DHT22;8431;52.458;9.998;2022-12-18T07:52:43;-9.10;99.90
16635;DHT22;8431;52.458;9.998;2022-12-18T07:55:10;-9.10;99.90
16635;DHT22;8431;52.458;9.998;2022-12-18T07:57:38;-9.10;99.90
16635;DHT22;8431;52.458;9.998;2022-12-18T08:00:06;-9.10;99.90
16635;DHT22;8431;52.458;9.998;2022-12-18T08:02:33;-9.10;99.90
16635;DHT22;8431;52.458;9.998;2022-12-18T08:05:00;-9.20;99.90
16635;DHT22;8431;52.458;9.998;2022-12-18T08:07:28;-9.30;99.90
16635;DHT22;8431;52.458;9.998;2022-12-18T08:09:55;-9.30;99.90
16635;DHT22;8431;52.458;9.998;2022-12-18T08:12:22;-9.30;99.90
16635;DHT22;8431;52.458;9.998;2022-12-18T08:14:50;-9.30;99.90
16635;DHT22;8431;52.458;9.998;2022-12-18T08:17:17;-9.30;99.90
16635;DHT22;8431;52.458;9.998;2022-12-18T08:19:45;-9.30;99.90
16635;DHT22;8431;52.458;9.998;2022-12-18T08:22:12;-9.30;99.90
16635;DHT22;8431;52.458;9.998;2022-12-18T08:24:39;-9.30;99.90
16635;DHT22;8431;52.458;9.998;2022-12-18T08:27:06;-9.10;99.90
16635;DHT22;8431;52.458;9.998;2022-12-18T08:29:33;-9.00;99.90
16635;DHT22;8431;52.458;9.998;2022-12-18T08:32:02;-8.90;99.90
16635;DHT22;8431;52.458;9.998;2022-12-18T08:34:29;-8.90;99.90
16635;DHT22;8431;52.458;9.998;2022-12-18T08:36:56;-8.90;99.90
16635;DHT22;8431;52.458;9.998;2022-12-18T08:39:23;-8.90;99.90
16635;DHT22;8431;52.458;9.998;2022-12-18T08:41:50;-8.90;99.90
16635;DHT22;8431;52.458;9.998;2022-12-18T08:44:33;-8.80;99.90
16635;DHT22;8431;52.458;9.998;2022-12-18T08:47:10;-8.70;99.90
16635;DHT22;8431;52.458;9.998;2022-12-18T08:49:37;-8.60;99.90
16635;DHT22;8431;52.458;9.998;2022-12-18T08:52:04;-8.50;99.90
16635;DHT22;8431;52.458;9.998;2022-12-18T08:54:31;-8.50;99.90
16635;DHT22;8431;52.458;9.998;2022-12-18T08:56:58;-8.40;99.90
16635;DHT22;8431;52.458;9.998;2022-12-18T08:59:25;-8.30;99.90
16635;DHT22;8431;52.458;9.998;2022-12-18T09:01:53;-8.20;99.90
16635;DHT22;8431;52.458;9.998;2022-12-18T09:04:22;-8.20;99.90
16635;DHT22;8431;52.458;9.998;2022-12-18T09:06:49;-8.10;99.90
16635;DHT22;8431;52.458;9.998;2022-12-18T09:09:16;-8.00;99.90
16635;DHT22;8431;52.458;9.998;2022-12-18T09:11:43;-7.90;99.90
16635;DHT22;8431;52.458;9.998;2022-12-18T09:14:10;-7.70;99.90
16635;DHT22;8431;52.458;9.998;2022-12-18T09:16:37;-7.60;99.90
16635;DHT22;8431;52.458;9.998;2022-12-18T09:19:05;-7.50;99.90
16635;DHT22;8431;52.458;9.998;2022-12-18T09:21:38;-7.30;99.90
16635;DHT22;8431;52.458;9.998;2022-12-18T09:24:06;-7.10;99.90
16635;DHT22;8431;52.458;9.998;2022-12-18T09:26:33;-7.00;99.90
16635;DHT22;8431;52.458;9.998;2022-12-18T09:29:00;-6.70;99.90
16635;DHT22;8431;52.458;9.998;2022-12-18T09:31:27;-6.50;99.90
16635;DHT22;8431;52.458;9.998;2022-12-18T09:33:55;-6.30;99.90
16635;DHT22;8431;52.458;9.998;2022-12-18T09:36:22;-6.20;99.90
16635;DHT22;8431;52.458;9.998;2022-12-18T09:38:50;-6.10;99.90
16635;DHT22;8431;52.458;9.998;2022-12-18T09:41:40;-6.00;99.90
16635;DHT22;8431;52.458;9.998;2022-12-18T09:44:20;-5.80;99.90
16635;DHT22;8431;52.458;9.998;2022-12-18T09:46:58;-5.70;99.90
16635;DHT22;8431;52.458;9.998;2022-12-18T09:49:30;-5.60;99.90
16635;DHT22;8431;52.458;9.998;2022-12-18T09:52:00;-5.50;99.90
16635;DHT22;8431;52.458;9.998;2022-12-18T09:54:34;-5.30;99.90
16635;DHT22;8431;52.458;9.998;2022-12-18T09:57:02;-5.20;99.90
16635;DHT22;8431;52.458;9.998;2022-12-18T09:59:33;-5.10;99.90
16635;DHT22;8431;52.458;9.998;2022-12-18T10:02:12;-5.00;99.90
16635;DHT22;8431;52.458;9.998;2022-12-18T10:04:40;-4.90;99.90
16635;DHT22;8431;52.458;9.998;2022-12-18T10:07:13;-4.70;99.90
16635;DHT22;8431;52.458;9.998;2022-12-18T10:09:51;-4.60;99.90
16635;DHT22;8431;52.458;9.998;2022-12-18T10:12:23;-4.50;99.90
16635;DHT22;8431;52.458;9.998;2022-12-18T10:14:58;-4.40;99.90
16635;DHT22;8431;52.458;9.998;2022-12-18T10:17:31;-4.30;99.90
16635;DHT22;8431;52.458;9.998;2022-12-18T10:20:09;-4.20;99.90
16635;DHT22;8431;52.458;9.998;2022-12-18T10:22:47;-4.20;99.90
16635;DHT22;8431;52.458;9.998;2022-12-18T10:25:22;-4.10;99.90
16635;DHT22;8431;52.458;9.998;2022-12-18T10:27:53;-4.10;99.90
16635;DHT22;8431;52.458;9.998;2022-12-18T10:30:23;-4.10;99.90
16635;DHT22;8431;52.458;9.998;2022-12-18T10:32:50;-4.00;99.90
16635;DHT22;8431;52.458;9.998;2022-12-18T10:35:19;-4.00;99.90
16635;DHT22;8431;52.458;9.998;2022-12-18T10:38:01;-4.00;99.90
16635;DHT22;8431;52.458;9.998;2022-12-18T10:40:30;-3.90;99.90
16635;DHT22;8431;52.458;9.998;2022-12-18T10:43:05;-3.90;99.90
16635;DHT22;8431;52.458;9.998;2022-12-18T10:45:33;-3.90;99.90
16635;DHT22;8431;52.458;9.998;2022-12-18T10:48:00;-3.80;99.90
16635;DHT22;8431;52.458;9.998;2022-12-18T10:50:30;-3.70;99.90
16635;DHT22;8431;52.458;9.998;2022-12-18T10:52:59;-3.70;99.90
16635;DHT22;8431;52.458;9.998;2022-12-18T10:55:32;-3.60;99.90
16635;DHT22;8431;52.458;9.998;2022-12-18T10:58:16;-3.50;99.90
16635;DHT22;8431;52.458;9.998;2022-12-18T11:00:44;-3.50;99.90
16635;DHT22;8431;52.458;9.998;2022-12-18T11:03:29;-3.40;99.90
16635;DHT22;8431;52.458;9.998;2022-12-18T11:06:06;-3.40;99.90
16635;DHT22;8431;52.458;9.998;2022-12-18T11:08:33;-3.40;99.90
16635;DHT22;8431;52.458;9.998;2022-12-18T11:11:02;-3.40;99.90
16635;DHT22;8431;52.458;9.998;2022-12-18T11:13:30;-3.40;99.90
16635;DHT22;8431;52.458;9.998;2022-12-18T11:15:58;-3.40;99.90
16635;DHT22;8431;52.458;9.998;2022-12-18T11:18:27;-3.30;99.90
16635;DHT22;8431;52.458;9.998;2022-12-18T11:20:56;-3.30;99.90
16635;DHT22;8431;52.458;9.998;2022-12-18T11:23:24;-3.30;99.90
16635;DHT22;8431;52.458;9.998;2022-12-18T11:26:00;-3.30;99.90
16635;DHT22;8431;52.458;9.998;2022-12-18T11:28:37;-3.30;99.90
16635;DHT22;8431;52.458;9.998;2022-12-18T11:31:22;-3.30;99.90
16635;DHT22;8431;52.458;9.998;2022-12-18T11:33:56;-3.30;99.90
16635;DHT22;8431;52.458;9.998;2022-12-18T11:36:29;-3.30;99.90
16635;DHT22;8431;52.458;9.998;2022-12-18T11:38:59;-3.20;99.90
16635;DHT22;8431;52.458;9.998;2022-12-18T11:41:32;-3.10;99.90
16635;DHT22;8431;52.458;9.998;2022-12-18T11:44:24;-3.10;99.90
16635;DHT22;8431;52.458;9.998;2022-12-18T11:46:56;-3.00;99.90
16635;DHT22;8431;52.458;9.998;2022-12-18T11:49:30;-3.00;99.90
16635;DHT22;8431;52.458;9.998;2022-12-18T11:52:04;-2.90;99.90
16635;DHT22;8431;52.458;9.998;2022-12-18T11:54:35;-2.80;99.90
16635;DHT22;8431;52.458;9.998;2022-12-18T11:57:08;-2.70;99.90
16635;DHT22;8431;52.458;9.998;2022-12-18T11:59:49;-2.70;99.90
16635;DHT22;8431;52.458;9.998;2022-12-18T12:02:40;-2.80;99.90
16635;DHT22;8431;52.458;9.998;2022-12-18T12:05:29;-2.80;99.90
16635;DHT22;8431;52.458;9.998;2022-12-18T12:08:09;-2.80;99.90
16635;DHT22;8431;52.458;9.998;2022-12-18T12:10:47;-2.80;99.90
16635;DHT22;8431;52.458;9.998;2022-12-18T12:13:29;-2.70;99.90
16635;DHT22;8431;52.458;9.998;2022-12-18T12:16:06;-2.70;99.90
16635;DHT22;8431;52.458;9.998;2022-12-18T12:18:48;-2.60;99.90
16635;DHT22;8431;52.458;9.998;2022-12-18T12:21:21;-2.60;99.90
16635;DHT22;8431;52.458;9.998;2022-12-18T12:23:57;-2.60;99.90
16635;DHT22;8431;52.458;9.998;2022-12-18T12:26:43;-2.60;99.90
16635;DHT22;8431;52.458;9.998;2022-12-18T12:29:31;-2.60;99.90
16635;DHT22;8431;52.458;9.998;2022-12-18T12:32:22;-2.70;99.90
16635;DHT22;8431;52.458;9.998;2022-12-18T12:35:02;-2.70;99.90
16635;DHT22;8431;52.458;9.998;2022-12-18T12:37:40;-2.70;99.90
16635;DHT22;8431;52.458;9.998;2022-12-18T12:40:13;-2.60;99.90
16635;DHT22;8431;52.458;9.998;2022-12-18T12:42:47;-2.50;99.90
16635;DHT22;8431;52.458;9.998;2022-12-18T12:45:37;-2.50;99.90
16635;DHT22;8431;52.458;9.998;2022-12-18T12:48:13;-2.40;99.90
16635;DHT22;8431;52.458;9.998;2022-12-18T12:50:44;-2.50;99.90
16635;DHT22;8431;52.458;9.998;2022-12-18T12:53:21;-2.50;99.90
16635;DHT22;8431;52.458;9.998;2022-12-18T12:55:49;-2.60;99.90
16635;DHT22;8431;52.458;9.998;2022-12-18T12:58:26;-2.60;99.90
16635;DHT22;8431;52.458;9.998;2022-12-18T13:01:04;-2.60;99.90
16635;DHT22;8431;52.458;9.998;2022-12-18T13:03:43;-2.70;99.90
16635;DHT22;8431;52.458;9.998;2022-12-18T13:06:23;-2.70;99.90
16635;DHT22;8431;52.458;9.998;2022-12-18T13:08:56;-2.60;99.90
16635;DHT22;8431;52.458;9.998;2022-12-18T13:11:40;-2.60;99.90
16635;DHT22;8431;52.458;9.998;2022-12-18T13:14:29;-2.50;99.90
16635;DHT22;8431;52.458;9.998;2022-12-18T13:17:27;-2.50;99.90
16635;DHT22;8431;52.458;9.998;2022-12-18T13:20:10;-2.50;99.90
16635;DHT22;8431;52.458;9.998;2022-12-18T13:22:39;-2.50;99.90
16635;DHT22;8431;52.458;9.998;2022-12-18T13:25:32;-2.60;99.90
16635;DHT22;8431;52.458;9.998;2022-12-18T13:28:05;-2.60;99.90
16635;DHT22;8431;52.458;9.998;2022-12-18T13:30:58;-2.60;99.90
16635;DHT22;8431;52.458;9.998;2022-12-18T13:33:49;-2.70;99.90
16635;DHT22;8431;52.458;9.998;2022-12-18T13:36:32;-2.70;99.90
16635;DHT22;8431;52.458;9.998;2022-12-18T13:39:15;-2.80;99.90
16635;DHT22;8431;52.458;9.998;2022-12-18T13:41:49;-2.80;99.90
16635;DHT22;8431;52.458;9.998;2022-12-18T13:44:29;-2.80;99.90
16635;DHT22;8431;52.458;9.998;2022-12-18T13:47:01;-2.80;99.90
16635;DHT22;8431;52.458;9.998;2022-12-18T13:49:36;-2.80;99.90
16635;DHT22;8431;52.458;9.998;2022-12-18T13:52:16;-2.70;99.90
16635;DHT22;8431;52.458;9.998;2022-12-18T13:54:47;-2.70;99.90
16635;DHT22;8431;52.458;9.998;2022-12-18T13:57:26;-2.70;99.90
16635;DHT22;8431;52.458;9.998;2022-12-18T13:59:55;-2.80;99.90
16635;DHT22;8431;52.458;9.998;2022-12-18T14:02:24;-2.80;99.90
16635;DHT22;8431;52.458;9.998;2022-12-18T14:04:52;-2.80;99.90
16635;DHT22;8431;52.458;9.998;2022-12-18T14:07:22;-2.80;99.90
16635;DHT22;8431;52.458;9.998;2022-12-18T14:09:53;-2.90;99.90
16635;DHT22;8431;52.458;9.998;2022-12-18T14:12:24;-2.90;99.90
16635;DHT22;8431;52.458;9.998;2022-12-18T14:15:22;-2.90;99.90
16635;DHT22;8431;52.458;9.998;2022-12-18T14:17:52;-2.90;99.90
16635;DHT22;8431;52.458;9.998;2022-12-18T14:20:21;-3.00;99.90
16635;DHT22;8431;52.458;9.998;2022-12-18T14:22:50;-3.00;99.90
16635;DHT22;8431;52.458;9.998;2022-12-18T14:25:20;-3.00;99.90
16635;DHT22;8431;52.458;9.998;2022-12-18T14:27:49;-3.10;99.90
16635;DHT22;8431;52.458;9.998;2022-12-18T14:30:25;-3.10;99.90
16635;DHT22;8431;52.458;9.998;2022-12-18T14:33:00;-3.10;99.90
16635;DHT22;8431;52.458;9.998;2022-12-18T14:35:27;-3.10;99.90
16635;DHT22;8431;52.458;9.998;2022-12-18T14:40:56;-3.30;99.90
16635;DHT22;8431;52.458;9.998;2022-12-18T14:43:24;-3.30;99.90
16635;DHT22;8431;52.458;9.998;2022-12-18T14:45:52;-3.30;99.90
16635;DHT22;8431;52.458;9.998;2022-12-18T14:48:20;-3.40;99.90
16635;DHT22;8431;52.458;9.998;2022-12-18T14:50:55;-3.50;99.90
16635;DHT22;8431;52.458;9.998;2022-12-18T14:53:32;-3.50;99.90
16635;DHT22;8431;52.458;9.998;2022-12-18T14:56:04;-3.60;99.90
16635;DHT22;8431;52.458;9.998;2022-12-18T14:58:37;-3.60;99.90
16635;DHT22;8431;52.458;9.998;2022-12-18T15:01:05;-3.70;99.90
16635;DHT22;8431;52.458;9.998;2022-12-18T15:03:33;-3.70;99.90
16635;DHT22;8431;52.458;9.998;2022-12-18T15:06:15;-3.80;99.90
16635;DHT22;8431;52.458;9.998;2022-12-18T15:08:44;-3.80;99.90
16635;DHT22;8431;52.458;9.998;2022-12-18T15:11:26;-3.80;99.90
16635;DHT22;8431;52.458;9.998;2022-12-18T15:13:53;-3.80;99.90
16635;DHT22;8431;52.458;9.998;2022-12-18T15:16:20;-3.80;99.90
16635;DHT22;8431;52.458;9.998;2022-12-18T15:18:48;-3.90;99.90
16635;DHT22;8431;52.458;9.998;2022-12-18T15:21:17;-3.90;99.90
16635;DHT22;8431;52.458;9.998;2022-12-18T15:23:48;-4.00;99.90
16635;DHT22;8431;52.458;9.998;2022-12-18T15:26:17;-3.90;99.90
16635;DHT22;8431;52.458;9.998;2022-12-18T15:28:46;-3.90;99.90
16635;DHT22;8431;52.458;9.998;2022-12-18T15:31:24;-3.90;99.90
16635;DHT22;8431;52.458;9.998;2022-12-18T15:34:10;-3.90;99.90
16635;DHT22;8431;52.458;9.998;2022-12-18T15:36:38;-3.90;99.90
16635;DHT22;8431;52.458;9.998;2022-12-18T15:39:09;-3.80;99.90
16635;DHT22;8431;52.458;9.998;2022-12-18T15:41:37;-3.80;99.90
16635;DHT22;8431;52.458;9.998;2022-12-18T15:44:22;-3.80;99.90
16635;DHT22;8431;52.458;9.998;2022-12-18T15:46:48;-3.90;99.90
16635;DHT22;8431;52.458;9.998;2022-12-18T15:49:18;-3.90;99.90
16635;DHT22;8431;52.458;9.998;2022-12-18T15:51:49;-3.90;99.90
16635;DHT22;8431;52.458;9.998;2022-12-18T15:54:21;-3.90;99.90
16635;DHT22;8431;52.458;9.998;2022-12-18T15:57:15;-3.80;99.90
16635;DHT22;8431;52.458;9.998;2022-12-18T16:00:01;-3.80;99.90
16635;DHT22;8431;52.458;9.998;2022-12-18T16:02:35;-3.90;99.90
16635;DHT22;8431;52.458;9.998;2022-12-18T16:05:02;-3.90;99.90
16635;DHT22;8431;52.458;9.998;2022-12-18T16:07:30;-3.90;99.90
16635;DHT22;8431;52.458;9.998;2022-12-18T16:09:58;-4.00;99.90
16635;DHT22;8431;52.458;9.998;2022-12-18T16:12:25;-4.00;99.90
16635;DHT22;8431;52.458;9.998;2022-12-18T16:15:24;-4.00;99.90